Terminal Aerodrome Forecast
Issued by NWS

Home | Current Version | Previous Version | Text Only | Print | Product List | Glossary On
Versions: 1 2 3 4 5 6 7 8 9 10 11 12 13 14 15 16 17
000
FTUS43 KGRB 281700
TAFAUW
TAF
KAUW 281720Z 2818/2918 22008KT P6SM SKC
     FM282300 21009KT P6SM SCT250
     FM290900 18012G16KT P6SM SCT090 BKN120 WS015/21040KT
     FM291200 19014G19KT P6SM SCT050 BKN100 WS020/21040KT
      TEMPO 2912/2915 6SM -SN OVC030
     FM291500 19016G24KT P6SM -RASN OVC020=

USA.gov is the U.S. government's official web portal to all federal, state and local government web resources and services.